createdAt,value
2018-07-13T00:00:39.486Z,88.09
2018-07-13T00:03:08.920Z,87.36
2018-07-13T00:05:38.383Z,87.83
2018-07-13T00:08:07.642Z,88.00
2018-07-13T00:10:37.102Z,87.34
2018-07-13T00:13:07.105Z,87.84
2018-07-13T00:15:36.289Z,87.99
2018-07-13T00:18:05.719Z,87.81
2018-07-13T00:20:34.917Z,88.22
2018-07-13T00:23:04.551Z,88.60
2018-07-13T00:25:34.927Z,88.27
2018-07-13T00:28:04.622Z,88.65
2018-07-13T00:30:34.039Z,88.47
2018-07-13T00:33:05.125Z,88.39
2018-07-13T00:35:34.547Z,88.28
2018-07-13T00:38:03.982Z,88.32
2018-07-13T00:40:33.720Z,88.19
2018-07-13T00:43:03.549Z,88.08
2018-07-13T00:45:33.298Z,88.83
2018-07-13T00:48:02.810Z,88.57
2018-07-13T00:50:32.978Z,87.93
2018-07-13T00:53:02.130Z,88.44
2018-07-13T00:55:31.829Z,88.41
2018-07-13T00:58:01.324Z,89.07
2018-07-13T01:00:33.052Z,88.77
2018-07-13T01:03:04.797Z,88.48
2018-07-13T01:05:34.373Z,88.42
2018-07-13T01:08:04.000Z,88.18
2018-07-13T01:10:33.428Z,88.37
2018-07-13T01:13:06.005Z,88.59
2018-07-13T01:15:35.181Z,88.20
2018-07-13T01:18:04.855Z,88.81
2018-07-13T01:20:34.325Z,88.89
2018-07-13T01:23:03.846Z,88.70
2018-07-13T01:25:33.324Z,89.00
2018-07-13T01:28:03.289Z,88.71
2018-07-13T01:30:32.899Z,88.70
2018-07-13T01:33:02.378Z,88.46
2018-07-13T01:35:32.415Z,88.01
2018-07-13T01:38:01.894Z,88.57
2018-07-13T01:40:31.108Z,88.43
2018-07-13T01:43:00.632Z,88.58
2018-07-13T01:45:30.090Z,88.64
2018-07-13T01:47:59.592Z,88.22
2018-07-13T01:50:29.633Z,88.53
2018-07-13T01:52:58.854Z,89.24
2018-07-13T01:55:28.278Z,88.96
2018-07-13T01:57:57.738Z,89.24
2018-07-13T02:00:27.217Z,89.20
2018-07-13T02:02:56.709Z,88.70
2018-07-13T02:05:26.206Z,88.41
2018-07-13T02:07:57.120Z,88.30
2018-07-13T02:10:26.877Z,88.63
2018-07-13T02:12:57.287Z,88.28
2018-07-13T02:15:26.749Z,88.64
2018-07-13T02:17:55.884Z,88.01
2018-07-13T02:20:26.030Z,88.92
2018-07-13T02:22:55.473Z,88.97
2018-07-13T02:25:25.278Z,88.56
2018-07-13T02:27:54.460Z,88.64
2018-07-13T02:30:24.190Z,88.63
2018-07-13T02:32:53.573Z,88.01
2018-07-13T02:35:23.858Z,88.34
2018-07-13T02:37:53.330Z,88.04
2018-07-13T02:40:22.953Z,87.94
2018-07-13T02:42:52.381Z,87.62
2018-07-13T02:45:21.843Z,88.42
2018-07-13T02:47:51.241Z,87.62
2018-07-13T02:50:21.288Z,88.17
2018-07-13T02:52:50.949Z,87.50
2018-07-13T02:55:20.741Z,87.67
2018-07-13T02:57:50.647Z,87.84
2018-07-13T03:00:21.173Z,87.66
2018-07-13T03:02:50.633Z,87.73
2018-07-13T03:05:21.006Z,87.61
2018-07-13T03:07:50.482Z,87.62
2018-07-13T03:10:20.156Z,87.66
2018-07-13T03:12:50.439Z,87.58
2018-07-13T03:15:19.882Z,87.65
2018-07-13T03:17:49.379Z,87.59
2018-07-13T03:20:18.824Z,88.01
2018-07-13T03:22:48.313Z,87.97
2018-07-13T03:25:18.760Z,88.34
2018-07-13T03:27:48.360Z,87.53
2018-07-13T03:30:18.503Z,87.47
2018-07-13T03:32:47.970Z,87.01
2018-07-13T03:35:17.973Z,87.68
2018-07-13T03:37:47.386Z,87.66
2018-07-13T03:40:18.225Z,87.81
2018-07-13T03:42:47.734Z,87.02
2018-07-13T03:45:17.830Z,87.06
2018-07-13T03:47:47.461Z,86.95
2018-07-13T03:50:16.911Z,87.32
2018-07-13T03:52:46.385Z,87.23
2018-07-13T03:55:15.580Z,87.51
2018-07-13T03:57:45.096Z,87.85
2018-07-13T04:00:15.274Z,87.91
2018-07-13T04:02:45.126Z,87.04
2018-07-13T04:05:14.741Z,87.63
2018-07-13T04:07:45.721Z,87.19
2018-07-13T04:10:15.278Z,87.43
2018-07-13T04:12:45.011Z,87.65
2018-07-13T04:15:14.313Z,86.87
2018-07-13T04:17:44.263Z,87.34
2018-07-13T04:20:13.899Z,87.14
2018-07-13T04:22:43.901Z,87.07
2018-07-13T04:25:13.502Z,87.09
2018-07-13T04:27:43.097Z,87.14
2018-07-13T04:30:12.670Z,87.17
2018-07-13T04:32:45.731Z,86.20
2018-07-13T04:35:16.290Z,85.91
2018-07-13T04:37:46.152Z,86.08
2018-07-13T04:40:15.876Z,85.77
2018-07-13T04:42:46.407Z,86.61
2018-07-13T04:45:16.700Z,86.34
2018-07-13T04:47:47.477Z,85.49
2018-07-13T04:50:18.160Z,85.12
2018-07-13T04:52:47.778Z,85.37
2018-07-13T04:55:17.626Z,84.84
2018-07-13T04:57:47.253Z,85.04
2018-07-13T05:00:17.326Z,85.41
2018-07-13T05:02:47.228Z,84.40
2018-07-13T05:05:17.505Z,85.35
2018-07-13T05:07:48.529Z,84.95
2018-07-13T05:10:19.114Z,84.79
2018-07-13T05:12:48.766Z,85.02
2018-07-13T05:15:18.503Z,85.07
2018-07-13T05:17:48.864Z,84.51
2018-07-13T05:20:18.098Z,84.31
2018-07-13T05:22:47.626Z,84.46
2018-07-13T05:25:17.135Z,84.29
2018-07-13T05:27:47.935Z,83.91
2018-07-13T05:30:18.370Z,83.38
2018-07-13T05:32:47.980Z,83.43
2018-07-13T05:35:18.845Z,83.64
2018-07-13T05:37:49.397Z,83.52
2018-07-13T05:40:19.248Z,83.49
2018-07-13T05:42:48.489Z,83.29
2018-07-13T05:45:20.337Z,83.49
2018-07-13T05:47:49.952Z,83.00
2018-07-13T05:50:20.321Z,83.40
2018-07-13T05:52:50.513Z,82.68
2018-07-13T05:55:20.387Z,83.11
2018-07-13T05:57:51.364Z,82.91
2018-07-13T06:00:20.885Z,82.19
2018-07-13T06:02:51.403Z,82.84
2018-07-13T06:05:22.332Z,82.78
2018-07-13T06:07:52.472Z,82.76
2018-07-13T06:10:22.584Z,82.82
2018-07-13T06:12:52.371Z,82.23
2018-07-13T06:15:21.817Z,82.22
2018-07-13T06:17:51.833Z,81.74
2018-07-13T06:20:21.389Z,82.23
2018-07-13T06:22:51.991Z,81.78
2018-07-13T06:25:21.982Z,82.03
2018-07-13T06:27:51.631Z,81.53
2018-07-13T06:30:21.611Z,80.57
2018-07-13T06:32:52.594Z,80.51
2018-07-13T06:35:23.548Z,79.96
2018-07-13T06:37:54.506Z,80.88
2018-07-13T06:40:24.122Z,79.87
2018-07-13T06:42:54.053Z,80.50
2018-07-13T06:45:24.528Z,80.19
2018-07-13T06:47:53.730Z,79.89
2018-07-13T06:50:23.019Z,78.74
2018-07-13T06:52:53.032Z,79.85
2018-07-13T06:55:23.011Z,79.09
2018-07-13T06:58:09.543Z,80.10
2018-07-13T07:00:56.668Z,79.20
2018-07-13T07:03:28.032Z,78.70
2018-07-13T07:06:15.840Z,78.72
2018-07-13T07:08:47.937Z,78.32
2018-07-13T07:11:18.889Z,77.18
2018-07-13T07:13:49.121Z,76.56
2018-07-13T07:16:19.081Z,76.47
2018-07-13T07:18:48.633Z,76.75
2018-07-13T07:21:18.901Z,76.37
2018-07-13T07:23:48.540Z,76.60
2018-07-13T07:26:18.805Z,75.99
2018-07-13T07:28:48.369Z,77.07
2018-07-13T07:31:17.907Z,76.01
2018-07-13T07:33:47.794Z,76.64
2018-07-13T07:36:17.810Z,75.94
2018-07-13T07:38:47.434Z,75.48
2018-07-13T07:41:17.099Z,76.63
2018-07-13T07:43:47.228Z,74.73
2018-07-13T07:46:17.029Z,75.40
2018-07-13T07:48:46.518Z,74.37
2018-07-13T07:51:16.201Z,74.61
2018-07-13T07:53:45.652Z,75.22
2018-07-13T07:56:15.258Z,73.99
2018-07-13T07:58:44.769Z,74.51
2018-07-13T08:01:14.675Z,74.53
2018-07-13T08:03:44.205Z,73.14
2018-07-13T08:06:13.676Z,73.39
2018-07-13T08:08:42.863Z,71.99
2018-07-13T08:11:12.069Z,73.51
2018-07-13T08:13:41.437Z,74.02
2018-07-13T08:16:10.977Z,74.52
2018-07-13T08:18:40.204Z,74.10
2018-07-13T08:21:09.898Z,74.87
2018-07-13T08:23:40.669Z,73.93
2018-07-13T08:26:10.618Z,74.89
2018-07-13T08:28:40.203Z,73.64
2018-07-13T08:31:10.922Z,73.97
2018-07-13T08:33:40.388Z,73.76
2018-07-13T08:36:10.020Z,73.89
2018-07-13T08:38:40.111Z,74.69
2018-07-13T08:41:09.394Z,74.10
2018-07-13T08:43:38.976Z,73.19
2018-07-13T08:46:08.800Z,73.84
2018-07-13T08:48:38.578Z,73.64
2018-07-13T08:51:09.502Z,74.04
2018-07-13T08:53:39.479Z,73.92
2018-07-13T08:56:10.176Z,72.61
2018-07-13T08:58:39.780Z,72.47
2018-07-13T09:01:09.266Z,72.16
2018-07-13T09:03:38.560Z,72.34
2018-07-13T09:06:08.237Z,71.66
2018-07-13T09:08:38.344Z,71.71
2018-07-13T09:11:08.721Z,73.32
2018-07-13T09:13:38.386Z,71.98
2018-07-13T09:16:07.902Z,73.13
2018-07-13T09:18:38.231Z,72.33
2018-07-13T09:21:07.831Z,72.04
2018-07-13T09:23:37.464Z,71.85
2018-07-13T09:26:07.098Z,71.93
2018-07-13T09:28:36.670Z,71.77
2018-07-13T09:31:06.343Z,71.36
2018-07-13T09:33:35.907Z,72.13
2018-07-13T09:36:05.955Z,70.03
2018-07-13T09:38:36.102Z,71.47
2018-07-13T09:41:05.793Z,70.66
2018-07-13T09:43:35.366Z,69.98
2018-07-13T09:46:04.647Z,68.92
2018-07-13T09:48:34.104Z,68.59
2018-07-13T09:51:03.912Z,69.32
2018-07-13T09:53:33.500Z,70.18
2018-07-13T09:56:02.993Z,70.13
2018-07-13T09:58:34.828Z,69.85
2018-07-13T10:01:09.554Z,68.45
2018-07-13T10:03:39.076Z,68.80
2018-07-13T10:06:08.635Z,67.61
2018-07-13T10:08:38.257Z,67.51
2018-07-13T10:11:07.926Z,68.17
2018-07-13T10:13:37.403Z,66.49
2018-07-13T10:16:06.917Z,67.77
2018-07-13T10:18:36.529Z,67.71
2018-07-13T10:21:07.703Z,66.19
2018-07-13T10:23:37.222Z,65.99
2018-07-13T10:26:13.230Z,66.28
2018-07-13T10:28:42.796Z,65.17
2018-07-13T10:31:13.832Z,65.84
2018-07-13T10:33:43.623Z,64.74
2018-07-13T10:36:15.467Z,66.22
2018-07-13T10:38:45.261Z,65.79
2018-07-13T10:41:14.915Z,64.98
2018-07-13T10:43:44.229Z,65.43
2018-07-13T10:46:13.934Z,65.23
2018-07-13T10:48:43.588Z,64.38
2018-07-13T10:51:13.065Z,64.58
2018-07-13T10:53:42.592Z,64.77
2018-07-13T10:56:12.023Z,63.03
2018-07-13T10:58:41.571Z,63.88
2018-07-13T11:01:11.005Z,64.18
2018-07-13T11:03:40.836Z,63.72
2018-07-13T11:06:10.321Z,64.33
2018-07-13T11:08:39.825Z,63.93
2018-07-13T11:11:09.495Z,63.84
2018-07-13T11:13:43.042Z,63.78
2018-07-13T11:16:12.557Z,61.50
2018-07-13T11:18:42.151Z,62.07
2018-07-13T11:21:11.760Z,62.59
2018-07-13T11:23:41.288Z,62.36
2018-07-13T11:26:11.150Z,62.29
2018-07-13T11:28:41.256Z,62.68
2018-07-13T11:31:10.747Z,62.22
2018-07-13T11:33:40.228Z,62.81
2018-07-13T11:36:09.957Z,62.84
2018-07-13T11:38:39.633Z,62.23
2018-07-13T11:41:09.202Z,62.71
2018-07-13T11:43:38.678Z,61.50
2018-07-13T11:46:08.099Z,60.73
2018-07-13T11:48:38.011Z,60.89
2018-07-13T11:51:07.877Z,61.57
2018-07-13T11:53:37.479Z,60.22
2018-07-13T11:56:06.901Z,59.90
2018-07-13T11:58:36.341Z,60.99
2018-07-13T12:01:06.090Z,60.41
2018-07-13T12:03:35.704Z,59.44
2018-07-13T12:06:06.222Z,59.05
2018-07-13T12:08:35.570Z,59.17
2018-07-13T12:11:05.001Z,59.55
2018-07-13T12:13:34.973Z,60.20
2018-07-13T12:16:04.714Z,58.05
2018-07-13T12:18:35.284Z,58.13
2018-07-13T12:21:05.189Z,58.37
2018-07-13T12:23:34.793Z,57.74
2018-07-13T12:26:05.990Z,56.85
2018-07-13T12:28:35.510Z,56.41
2018-07-13T12:31:05.737Z,54.18
2018-07-13T12:33:35.370Z,51.23
2018-07-13T12:36:04.854Z,48.99
2018-07-13T12:38:34.474Z,48.42
2018-07-13T12:41:05.695Z,47.55
2018-07-13T12:43:37.199Z,46.88
2018-07-13T12:46:06.975Z,46.87
2018-07-13T12:48:37.600Z,46.40
2018-07-13T12:51:07.865Z,47.30
2018-07-13T12:53:37.447Z,46.22
2018-07-13T12:56:06.966Z,45.91
2018-07-13T12:58:37.098Z,44.62
2018-07-13T13:01:07.741Z,42.40
2018-07-13T13:03:37.316Z,44.68
2018-07-13T13:06:07.468Z,43.05
2018-07-13T13:08:36.647Z,40.90
2018-07-13T13:11:06.760Z,43.63
2018-07-13T13:13:36.288Z,45.47
2018-07-13T13:16:05.965Z,44.54
2018-07-13T13:18:35.608Z,44.45
2018-07-13T13:21:05.367Z,45.16
2018-07-13T13:23:35.106Z,46.54
2018-07-13T13:26:04.717Z,44.90
2018-07-13T13:28:37.598Z,43.66
2018-07-13T13:31:07.250Z,43.82
2018-07-13T13:33:36.479Z,43.64
2018-07-13T13:36:06.101Z,41.59
2018-07-13T13:38:35.666Z,41.24
2018-07-13T13:41:05.408Z,42.94
2018-07-13T13:43:35.233Z,42.56
2018-07-13T13:46:04.862Z,41.95
2018-07-13T13:48:34.945Z,42.36
2018-07-13T13:51:04.707Z,41.43
2018-07-13T13:53:34.854Z,43.09
2018-07-13T13:56:04.435Z,42.62
2018-07-13T13:58:34.020Z,42.44
2018-07-13T14:01:04.010Z,40.42
2018-07-13T14:03:36.146Z,40.70
2018-07-13T14:06:05.460Z,43.63
2018-07-13T14:08:34.947Z,42.45
2018-07-13T14:11:05.188Z,43.10
2018-07-13T14:13:34.444Z,42.63
2018-07-13T14:16:04.269Z,43.27
2018-07-13T14:18:34.457Z,44.35
2018-07-13T14:21:04.588Z,45.21
2018-07-13T14:23:34.937Z,43.96
2018-07-13T14:26:04.765Z,41.85
2018-07-13T14:28:35.399Z,42.88
2018-07-13T14:31:05.643Z,44.52
2018-07-13T14:33:35.421Z,43.09
2018-07-13T14:36:05.558Z,41.51
2018-07-13T14:38:35.467Z,43.52
2018-07-13T14:41:05.257Z,42.86
2018-07-13T14:43:34.955Z,42.13
2018-07-13T14:46:05.464Z,39.96
2018-07-13T14:48:35.426Z,42.31
2018-07-13T14:51:06.485Z,42.25
2018-07-13T14:53:36.378Z,41.57
2018-07-13T14:56:05.999Z,43.08
2018-07-13T14:58:35.469Z,42.42
2018-07-13T15:01:05.111Z,42.58
2018-07-13T15:03:35.549Z,42.75
2018-07-13T15:06:05.804Z,42.35
2018-07-13T15:08:37.897Z,41.35
2018-07-13T15:11:08.834Z,42.56
2018-07-13T15:13:39.582Z,43.93
2018-07-13T15:16:09.796Z,43.58
2018-07-13T15:18:39.512Z,42.72
2018-07-13T15:21:11.126Z,42.04
2018-07-13T15:23:41.519Z,43.96
2018-07-13T15:26:12.354Z,42.58
2018-07-13T15:28:41.855Z,44.22
2018-07-13T15:31:11.498Z,43.23
2018-07-13T15:33:41.970Z,42.84
2018-07-13T15:36:11.813Z,41.22
2018-07-13T15:38:41.293Z,43.58
2018-07-13T15:41:10.875Z,42.53
2018-07-13T15:43:40.455Z,43.71
2018-07-13T15:46:10.049Z,43.56
2018-07-13T15:48:40.153Z,45.06
2018-07-13T15:51:09.652Z,42.87
2018-07-13T15:53:40.545Z,42.66
2018-07-13T15:56:10.749Z,44.16
2018-07-13T15:58:41.376Z,43.20
2018-07-13T16:01:11.693Z,42.71
2018-07-13T16:03:41.499Z,42.82
2018-07-13T16:06:12.002Z,42.76
2018-07-13T16:08:42.197Z,43.37
2018-07-13T16:11:11.853Z,44.05
2018-07-13T16:13:41.352Z,47.39
2018-07-13T16:16:12.381Z,47.23
2018-07-13T16:18:42.814Z,46.33
2018-07-13T16:21:12.448Z,45.70
2018-07-13T16:23:42.172Z,47.52
2018-07-13T16:26:11.965Z,47.26
2018-07-13T16:28:41.716Z,48.02
2018-07-13T16:31:11.092Z,46.92
2018-07-13T16:33:40.613Z,47.62
2018-07-13T16:36:10.090Z,48.34
2018-07-13T16:38:40.199Z,46.89
2018-07-13T16:41:09.915Z,46.03
2018-07-13T16:43:39.366Z,46.31
2018-07-13T16:46:09.433Z,47.32
2018-07-13T16:48:39.190Z,48.26
2018-07-13T16:51:09.195Z,49.03
2018-07-13T16:53:38.648Z,50.24
2018-07-13T16:56:08.633Z,48.75
2018-07-13T16:58:38.211Z,47.21
2018-07-13T17:01:08.354Z,48.64
2018-07-13T17:03:37.898Z,50.08
2018-07-13T17:06:07.251Z,50.11
2018-07-13T17:08:36.762Z,50.44
2018-07-13T17:11:06.257Z,52.04
2018-07-13T17:13:35.759Z,53.73
2018-07-13T17:16:05.623Z,54.51
2018-07-13T17:18:34.872Z,56.89
2018-07-13T17:21:04.472Z,57.84
2018-07-13T17:23:34.573Z,59.38
2018-07-13T17:26:04.209Z,59.60
2018-07-13T17:28:33.705Z,60.28
2018-07-13T17:31:03.152Z,60.67
2018-07-13T17:33:32.759Z,61.87
2018-07-13T17:36:02.234Z,61.19
2018-07-13T17:38:31.742Z,61.38
2018-07-13T17:41:01.473Z,61.66
2018-07-13T17:43:30.982Z,62.64
2018-07-13T17:46:00.470Z,62.48
2018-07-13T17:48:29.976Z,63.18
2018-07-13T17:50:59.509Z,63.56
2018-07-13T17:53:28.941Z,64.57
2018-07-13T17:55:58.265Z,64.51
2018-07-13T17:58:27.848Z,63.65
2018-07-13T18:00:57.174Z,64.46
2018-07-13T18:03:26.598Z,65.59
2018-07-13T18:05:56.554Z,64.28
2018-07-13T18:08:25.960Z,64.62
2018-07-13T18:10:55.649Z,65.24
2018-07-13T18:13:25.168Z,64.99
2018-07-13T18:15:54.661Z,64.25
2018-07-13T18:18:24.373Z,64.23
2018-07-13T18:20:53.874Z,64.98
2018-07-13T18:23:23.464Z,65.91
2018-07-13T18:25:52.853Z,66.41
2018-07-13T18:28:22.311Z,67.69
2018-07-13T18:30:51.909Z,68.48
2018-07-13T18:33:21.328Z,68.57
2018-07-13T18:35:50.773Z,68.47
2018-07-13T18:38:20.357Z,68.49
2018-07-13T18:40:49.922Z,68.56
2018-07-13T18:43:19.458Z,69.25
2018-07-13T18:45:50.040Z,68.91
2018-07-13T18:48:19.599Z,68.37
2018-07-13T18:50:49.052Z,69.44
2018-07-13T18:53:18.549Z,69.76
2018-07-13T18:55:48.097Z,70.82
2018-07-13T18:58:17.571Z,70.65
2018-07-13T19:00:47.142Z,70.31
2018-07-13T19:03:16.709Z,71.49
2018-07-13T19:05:46.429Z,71.58
2018-07-13T19:08:15.924Z,70.71
2018-07-13T19:10:45.578Z,72.20
2018-07-13T19:13:15.164Z,71.79
2018-07-13T19:15:44.802Z,71.66
2018-07-13T19:18:14.905Z,71.80
2018-07-13T19:20:45.310Z,72.40
2018-07-13T19:23:15.797Z,73.04
2018-07-13T19:25:45.840Z,73.45
2018-07-13T19:28:16.821Z,73.69
2018-07-13T19:30:46.482Z,74.13
2018-07-13T19:33:15.858Z,73.72
2018-07-13T19:35:45.146Z,73.53
2018-07-13T19:38:15.661Z,73.30
2018-07-13T19:40:45.156Z,73.68
2018-07-13T19:43:15.106Z,74.83
2018-07-13T19:45:45.396Z,74.22
2018-07-13T19:48:16.284Z,74.77
2018-07-13T19:50:45.867Z,75.25
2018-07-13T19:53:15.918Z,74.98
2018-07-13T19:55:45.562Z,74.31
2018-07-13T19:58:15.061Z,75.24
2018-07-13T20:00:45.342Z,75.42
2018-07-13T20:03:14.673Z,75.89
2018-07-13T20:05:44.108Z,75.15
2018-07-13T20:08:13.770Z,75.72
2018-07-13T20:10:43.465Z,75.80
2018-07-13T20:13:12.876Z,75.55
2018-07-13T20:15:42.023Z,75.73
2018-07-13T20:18:11.526Z,75.60
2018-07-13T20:20:41.650Z,76.61
2018-07-13T20:23:11.119Z,76.41
2018-07-13T20:25:40.675Z,75.98
2018-07-13T20:28:10.238Z,76.16
2018-07-13T20:30:40.063Z,76.59
2018-07-13T20:33:09.828Z,75.92
2018-07-13T20:35:39.568Z,76.20
2018-07-13T20:38:09.761Z,76.83
2018-07-13T20:40:39.339Z,75.86
2018-07-13T20:43:09.377Z,75.74
2018-07-13T20:45:38.864Z,76.08
2018-07-13T20:48:08.389Z,76.57
2018-07-13T20:50:37.820Z,76.46
2018-07-13T20:53:07.683Z,75.94
2018-07-13T20:55:37.551Z,75.85
2018-07-13T20:58:07.536Z,75.38
2018-07-13T21:00:37.564Z,76.14
2018-07-13T21:03:08.011Z,75.68
2018-07-13T21:05:38.276Z,76.28
2018-07-13T21:08:09.149Z,76.33
2018-07-13T21:10:38.906Z,77.15
2018-07-13T21:13:09.194Z,76.75
2018-07-13T21:15:40.249Z,76.91
2018-07-13T21:18:09.559Z,76.92
2018-07-13T21:20:40.092Z,76.77
2018-07-13T21:23:09.425Z,77.08
2018-07-13T21:25:40.031Z,77.45
2018-07-13T21:28:11.177Z,77.01
2018-07-13T21:30:40.967Z,77.01
2018-07-13T21:33:11.430Z,77.39
2018-07-13T21:35:41.560Z,77.64
2018-07-13T21:38:11.771Z,77.69
2018-07-13T21:40:42.368Z,77.95
2018-07-13T21:43:12.758Z,78.17
2018-07-13T21:45:42.412Z,78.82
2018-07-13T21:48:13.093Z,79.09
2018-07-13T21:50:42.608Z,78.96
2018-07-13T21:53:12.629Z,78.72
2018-07-13T21:55:42.068Z,79.48
2018-07-13T21:58:12.090Z,79.81
2018-07-13T22:00:41.676Z,80.13
2018-07-13T22:03:12.378Z,79.53
2018-07-13T22:05:42.925Z,79.84
2018-07-13T22:08:12.639Z,80.27
2018-07-13T22:10:42.556Z,79.85
2018-07-13T22:13:12.242Z,80.07
2018-07-13T22:15:42.182Z,80.29
2018-07-13T22:18:11.826Z,80.15
2018-07-13T22:20:41.947Z,80.07
2018-07-13T22:23:12.589Z,80.49
2018-07-13T22:25:42.195Z,80.53
2018-07-13T22:28:11.784Z,80.40
2018-07-13T22:30:41.277Z,80.05
2018-07-13T22:33:10.881Z,80.31
2018-07-13T22:35:40.964Z,80.67
2018-07-13T22:38:10.473Z,80.96
2018-07-13T22:40:40.100Z,80.14
2018-07-13T22:43:10.970Z,81.00
2018-07-13T22:45:40.814Z,81.05
2018-07-13T22:48:10.192Z,80.80
2018-07-13T22:50:39.700Z,80.98
2018-07-13T22:53:09.320Z,81.60
2018-07-13T22:55:39.379Z,80.90
2018-07-13T22:58:10.869Z,81.18
2018-07-13T23:00:41.523Z,81.00
2018-07-13T23:03:12.761Z,81.42
2018-07-13T23:05:43.259Z,81.42
2018-07-13T23:08:13.793Z,81.30
2018-07-13T23:10:43.528Z,81.34
2018-07-13T23:13:13.269Z,81.15
2018-07-13T23:15:42.695Z,81.08
2018-07-13T23:18:12.737Z,81.22
2018-07-13T23:20:43.134Z,81.04
2018-07-13T23:23:12.976Z,80.74
2018-07-13T23:25:44.045Z,81.58
2018-07-13T23:28:13.790Z,81.50
2018-07-13T23:30:43.036Z,82.36
2018-07-13T23:33:13.402Z,81.76
2018-07-13T23:35:42.873Z,81.60
2018-07-13T23:38:12.329Z,82.21
2018-07-13T23:40:41.699Z,82.55
2018-07-13T23:43:11.277Z,81.95
2018-07-13T23:45:40.910Z,82.69
2018-07-13T23:48:10.380Z,82.45
2018-07-13T23:50:39.921Z,82.24
2018-07-13T23:53:09.550Z,82.16
2018-07-13T23:55:39.169Z,82.75
2018-07-13T23:58:09.128Z,82.68
